sensor_id;sensor_type;location;lat;lon;timestamp;temperature;humidity
6988;DHT22;3534;49.960;8.018;2023-11-21T00:02:05;12.40;99.90
6988;DHT22;3534;49.960;8.018;2023-11-21T00:04:32;12.40;99.90
6988;DHT22;3534;49.960;8.018;2023-11-21T00:06:59;12.40;99.90
6988;DHT22;3534;49.960;8.018;2023-11-21T00:09:25;12.40;99.90
6988;DHT22;3534;49.960;8.018;2023-11-21T00:11:54;12.40;99.90
6988;DHT22;3534;49.960;8.018;2023-11-21T00:14:20;12.40;99.90
6988;DHT22;3534;49.960;8.018;2023-11-21T00:16:47;12.40;99.90
6988;DHT22;3534;49.960;8.018;2023-11-21T00:19:14;12.40;99.90
6988;DHT22;3534;49.960;8.018;2023-11-21T00:21:42;12.40;99.90
6988;DHT22;3534;49.960;8.018;2023-11-21T00:24:09;12.40;99.90
6988;DHT22;3534;49.960;8.018;2023-11-21T00:26:39;12.40;99.90
6988;DHT22;3534;49.960;8.018;2023-11-21T00:29:07;12.40;99.90
6988;DHT22;3534;49.960;8.018;2023-11-21T00:31:34;12.40;99.90
6988;DHT22;3534;49.960;8.018;2023-11-21T00:34:02;12.40;99.90
6988;DHT22;3534;49.960;8.018;2023-11-21T00:36:30;12.40;99.90
6988;DHT22;3534;49.960;8.018;2023-11-21T00:38:57;12.40;99.90
6988;DHT22;3534;49.960;8.018;2023-11-21T00:41:24;12.40;99.90
6988;DHT22;3534;49.960;8.018;2023-11-21T00:43:53;12.40;99.90
6988;DHT22;3534;49.960;8.018;2023-11-21T00:46:21;12.40;99.90
6988;DHT22;3534;49.960;8.018;2023-11-21T00:48:49;12.40;99.90
6988;DHT22;3534;49.960;8.018;2023-11-21T00:51:16;12.40;99.90
6988;DHT22;3534;49.960;8.018;2023-11-21T00:53:42;12.40;99.90
6988;DHT22;3534;49.960;8.018;2023-11-21T00:56:09;12.40;99.90
6988;DHT22;3534;49.960;8.018;2023-11-21T00:58:36;12.40;99.90
6988;DHT22;3534;49.960;8.018;2023-11-21T01:01:03;12.40;99.90
6988;DHT22;3534;49.960;8.018;2023-11-21T01:03:31;12.40;99.90
6988;DHT22;3534;49.960;8.018;2023-11-21T01:05:57;12.40;99.90
6988;DHT22;3534;49.960;8.018;2023-11-21T01:08:24;12.30;99.90
6988;DHT22;3534;49.960;8.018;2023-11-21T01:10:51;12.30;99.90
6988;DHT22;3534;49.960;8.018;2023-11-21T01:13:18;12.40;99.90
6988;DHT22;3534;49.960;8.018;2023-11-21T01:15:44;12.40;99.90
6988;DHT22;3534;49.960;8.018;2023-11-21T01:18:11;12.40;99.90
6988;DHT22;3534;49.960;8.018;2023-11-21T01:20:39;12.40;99.90
6988;DHT22;3534;49.960;8.018;2023-11-21T01:23:06;12.40;99.90
6988;DHT22;3534;49.960;8.018;2023-11-21T01:25:33;12.40;99.90
6988;DHT22;3534;49.960;8.018;2023-11-21T01:27:59;12.40;99.90
6988;DHT22;3534;49.960;8.018;2023-11-21T01:30:26;12.40;99.90
6988;DHT22;3534;49.960;8.018;2023-11-21T01:32:53;12.40;99.90
6988;DHT22;3534;49.960;8.018;2023-11-21T01:35:20;12.30;99.90
6988;DHT22;3534;49.960;8.018;2023-11-21T01:37:48;12.40;99.90
6988;DHT22;3534;49.960;8.018;2023-11-21T01:40:14;12.30;99.90
6988;DHT22;3534;49.960;8.018;2023-11-21T01:42:41;12.40;99.90
6988;DHT22;3534;49.960;8.018;2023-11-21T01:45:09;12.30;99.90
6988;DHT22;3534;49.960;8.018;2023-11-21T01:47:38;12.40;99.90
6988;DHT22;3534;49.960;8.018;2023-11-21T01:50:07;12.40;99.90
6988;DHT22;3534;49.960;8.018;2023-11-21T01:52:34;12.40;99.90
6988;DHT22;3534;49.960;8.018;2023-11-21T01:55:03;12.40;99.90
6988;DHT22;3534;49.960;8.018;2023-11-21T01:57:31;12.40;99.90
6988;DHT22;3534;49.960;8.018;2023-11-21T01:59:58;12.30;99.90
6988;DHT22;3534;49.960;8.018;2023-11-21T02:02:29;12.40;99.90
6988;DHT22;3534;49.960;8.018;2023-11-21T02:04:56;12.40;99.90
6988;DHT22;3534;49.960;8.018;2023-11-21T02:07:23;12.30;99.90
6988;DHT22;3534;49.960;8.018;2023-11-21T02:09:50;12.40;99.90
6988;DHT22;3534;49.960;8.018;2023-11-21T02:12:18;12.30;99.90
6988;DHT22;3534;49.960;8.018;2023-11-21T02:14:45;12.40;99.90
6988;DHT22;3534;49.960;8.018;2023-11-21T02:17:12;12.40;99.90
6988;DHT22;3534;49.960;8.018;2023-11-21T02:19:40;12.40;99.90
6988;DHT22;3534;49.960;8.018;2023-11-21T02:22:07;12.40;99.90
6988;DHT22;3534;49.960;8.018;2023-11-21T02:24:35;12.30;99.90
6988;DHT22;3534;49.960;8.018;2023-11-21T02:27:02;12.40;99.90
6988;DHT22;3534;49.960;8.018;2023-11-21T02:29:29;12.40;99.90
6988;DHT22;3534;49.960;8.018;2023-11-21T02:31:55;12.30;99.90
6988;DHT22;3534;49.960;8.018;2023-11-21T02:34:22;12.30;99.90
6988;DHT22;3534;49.960;8.018;2023-11-21T02:36:50;12.30;99.90
6988;DHT22;3534;49.960;8.018;2023-11-21T02:39:17;12.30;99.90
6988;DHT22;3534;49.960;8.018;2023-11-21T02:41:48;12.30;99.90
6988;DHT22;3534;49.960;8.018;2023-11-21T02:44:15;12.30;99.90
6988;DHT22;3534;49.960;8.018;2023-11-21T02:46:42;12.30;99.90
6988;DHT22;3534;49.960;8.018;2023-11-21T02:49:09;12.30;99.90
6988;DHT22;3534;49.960;8.018;2023-11-21T02:51:35;12.30;99.90
6988;DHT22;3534;49.960;8.018;2023-11-21T02:54:03;12.30;99.90
6988;DHT22;3534;49.960;8.018;2023-11-21T02:56:32;12.30;99.90
6988;DHT22;3534;49.960;8.018;2023-11-21T02:59:00;12.30;99.90
6988;DHT22;3534;49.960;8.018;2023-11-21T03:01:27;12.30;99.90
6988;DHT22;3534;49.960;8.018;2023-11-21T03:03:54;12.30;99.90
6988;DHT22;3534;49.960;8.018;2023-11-21T03:06:22;12.30;99.90
6988;DHT22;3534;49.960;8.018;2023-11-21T03:08:49;12.40;99.90
6988;DHT22;3534;49.960;8.018;2023-11-21T03:11:16;12.40;99.90
6988;DHT22;3534;49.960;8.018;2023-11-21T03:13:43;12.40;99.90
6988;DHT22;3534;49.960;8.018;2023-11-21T03:16:12;12.40;99.90
6988;DHT22;3534;49.960;8.018;2023-11-21T03:18:39;12.30;99.90
6988;DHT22;3534;49.960;8.018;2023-11-21T03:21:06;12.30;99.90
6988;DHT22;3534;49.960;8.018;2023-11-21T03:23:34;12.30;99.90
6988;DHT22;3534;49.960;8.018;2023-11-21T03:26:01;12.10;99.90
6988;DHT22;3534;49.960;8.018;2023-11-21T03:28:28;11.90;99.90
6988;DHT22;3534;49.960;8.018;2023-11-21T03:30:55;11.80;99.90
6988;DHT22;3534;49.960;8.018;2023-11-21T03:33:24;11.70;99.90
6988;DHT22;3534;49.960;8.018;2023-11-21T03:35:50;11.60;99.90
6988;DHT22;3534;49.960;8.018;2023-11-21T03:38:18;11.50;99.90
6988;DHT22;3534;49.960;8.018;2023-11-21T03:40:45;11.50;99.90
6988;DHT22;3534;49.960;8.018;2023-11-21T03:43:13;11.50;99.90
6988;DHT22;3534;49.960;8.018;2023-11-21T03:45:39;11.60;99.90
6988;DHT22;3534;49.960;8.018;2023-11-21T03:48:06;11.70;99.90
6988;DHT22;3534;49.960;8.018;2023-11-21T03:50:35;11.70;99.90
6988;DHT22;3534;49.960;8.018;2023-11-21T03:53:02;11.80;99.90
6988;DHT22;3534;49.960;8.018;2023-11-21T03:55:29;11.70;99.90
6988;DHT22;3534;49.960;8.018;2023-11-21T03:57:56;11.70;99.90
6988;DHT22;3534;49.960;8.018;2023-11-21T04:00:24;11.80;99.90
6988;DHT22;3534;49.960;8.018;2023-11-21T04:02:52;11.80;99.90
6988;DHT22;3534;49.960;8.018;2023-11-21T04:05:20;11.80;99.90
6988;DHT22;3534;49.960;8.018;2023-11-21T04:07:49;11.90;99.90
6988;DHT22;3534;49.960;8.018;2023-11-21T04:10:16;11.90;99.90
6988;DHT22;3534;49.960;8.018;2023-11-21T04:12:43;11.90;99.90
6988;DHT22;3534;49.960;8.018;2023-11-21T04:15:11;11.90;99.90
6988;DHT22;3534;49.960;8.018;2023-11-21T04:17:38;11.90;99.90
6988;DHT22;3534;49.960;8.018;2023-11-21T04:20:06;12.00;99.90
6988;DHT22;3534;49.960;8.018;2023-11-21T04:22:36;12.00;99.90
6988;DHT22;3534;49.960;8.018;2023-11-21T04:25:08;12.00;99.90
6988;DHT22;3534;49.960;8.018;2023-11-21T04:27:34;12.00;99.90
6988;DHT22;3534;49.960;8.018;2023-11-21T04:30:01;12.00;99.90
6988;DHT22;3534;49.960;8.018;2023-11-21T04:32:28;12.10;99.90
6988;DHT22;3534;49.960;8.018;2023-11-21T04:34:54;12.10;99.90
6988;DHT22;3534;49.960;8.018;2023-11-21T04:37:21;12.10;99.90
6988;DHT22;3534;49.960;8.018;2023-11-21T04:39:48;12.10;99.90
6988;DHT22;3534;49.960;8.018;2023-11-21T04:42:16;12.10;99.90
6988;DHT22;3534;49.960;8.018;2023-11-21T04:44:42;12.10;99.90
6988;DHT22;3534;49.960;8.018;2023-11-21T04:47:09;12.10;99.90
6988;DHT22;3534;49.960;8.018;2023-11-21T04:49:36;12.20;99.90
6988;DHT22;3534;49.960;8.018;2023-11-21T04:52:03;12.20;99.90
6988;DHT22;3534;49.960;8.018;2023-11-21T04:54:30;12.10;99.90
6988;DHT22;3534;49.960;8.018;2023-11-21T04:56:57;12.10;99.90
6988;DHT22;3534;49.960;8.018;2023-11-21T04:59:25;12.20;99.90
6988;DHT22;3534;49.960;8.018;2023-11-21T05:01:52;12.20;99.90
6988;DHT22;3534;49.960;8.018;2023-11-21T05:04:19;12.20;99.90
6988;DHT22;3534;49.960;8.018;2023-11-21T05:06:47;12.20;99.90
6988;DHT22;3534;49.960;8.018;2023-11-21T05:09:14;12.20;99.90
6988;DHT22;3534;49.960;8.018;2023-11-21T05:11:41;12.10;99.90
6988;DHT22;3534;49.960;8.018;2023-11-21T05:14:08;11.90;99.90
6988;DHT22;3534;49.960;8.018;2023-11-21T05:16:36;11.80;99.90
6988;DHT22;3534;49.960;8.018;2023-11-21T05:19:03;11.70;99.90
6988;DHT22;3534;49.960;8.018;2023-11-21T05:21:31;11.60;99.90
6988;DHT22;3534;49.960;8.018;2023-11-21T05:23:58;11.50;99.90
6988;DHT22;3534;49.960;8.018;2023-11-21T05:26:25;11.50;99.90
6988;DHT22;3534;49.960;8.018;2023-11-21T05:28:51;11.60;99.90
6988;DHT22;3534;49.960;8.018;2023-11-21T05:31:18;11.60;99.90
6988;DHT22;3534;49.960;8.018;2023-11-21T05:33:47;11.70;99.90
6988;DHT22;3534;49.960;8.018;2023-11-21T05:36:14;11.70;99.90
6988;DHT22;3534;49.960;8.018;2023-11-21T05:38:40;11.80;99.90
6988;DHT22;3534;49.960;8.018;2023-11-21T05:41:08;11.80;99.90
6988;DHT22;3534;49.960;8.018;2023-11-21T05:43:36;11.80;99.90
6988;DHT22;3534;49.960;8.018;2023-11-21T05:46:03;11.90;99.90
6988;DHT22;3534;49.960;8.018;2023-11-21T05:48:29;11.90;99.90
6988;DHT22;3534;49.960;8.018;2023-11-21T05:50:58;11.90;99.90
6988;DHT22;3534;49.960;8.018;2023-11-21T05:53:25;12.00;99.90
6988;DHT22;3534;49.960;8.018;2023-11-21T05:55:51;12.00;99.90
6988;DHT22;3534;49.960;8.018;2023-11-21T05:58:18;12.00;99.90
6988;DHT22;3534;49.960;8.018;2023-11-21T06:00:45;12.00;99.90
6988;DHT22;3534;49.960;8.018;2023-11-21T06:03:12;12.00;99.90
6988;DHT22;3534;49.960;8.018;2023-11-21T06:05:38;12.10;99.90
6988;DHT22;3534;49.960;8.018;2023-11-21T06:08:07;12.00;99.90
6988;DHT22;3534;49.960;8.018;2023-11-21T06:10:34;12.10;99.90
6988;DHT22;3534;49.960;8.018;2023-11-21T06:13:00;12.10;99.90
6988;DHT22;3534;49.960;8.018;2023-11-21T06:15:29;12.10;99.90
6988;DHT22;3534;49.960;8.018;2023-11-21T06:17:56;12.10;99.90
6988;DHT22;3534;49.960;8.018;2023-11-21T06:20:22;12.10;99.90
6988;DHT22;3534;49.960;8.018;2023-11-21T06:22:50;12.00;99.90
6988;DHT22;3534;49.960;8.018;2023-11-21T06:25:18;12.10;99.90
6988;DHT22;3534;49.960;8.018;2023-11-21T06:27:46;12.10;99.90
6988;DHT22;3534;49.960;8.018;2023-11-21T06:30:13;12.10;99.90
6988;DHT22;3534;49.960;8.018;2023-11-21T06:32:41;12.10;99.90
6988;DHT22;3534;49.960;8.018;2023-11-21T06:35:11;12.10;99.90
6988;DHT22;3534;49.960;8.018;2023-11-21T06:37:38;12.10;99.90
6988;DHT22;3534;49.960;8.018;2023-11-21T06:40:06;12.10;99.90
6988;DHT22;3534;49.960;8.018;2023-11-21T06:42:35;12.10;99.90
6988;DHT22;3534;49.960;8.018;2023-11-21T06:45:04;12.10;99.90
6988;DHT22;3534;49.960;8.018;2023-11-21T06:47:31;12.10;99.90
6988;DHT22;3534;49.960;8.018;2023-11-21T06:49:58;12.10;99.90
6988;DHT22;3534;49.960;8.018;2023-11-21T06:52:26;12.10;99.90
6988;DHT22;3534;49.960;8.018;2023-11-21T06:54:52;12.10;99.90
6988;DHT22;3534;49.960;8.018;2023-11-21T06:57:20;12.10;99.90
6988;DHT22;3534;49.960;8.018;2023-11-21T06:59:48;12.10;99.90
6988;DHT22;3534;49.960;8.018;2023-11-21T07:02:15;12.10;99.90
6988;DHT22;3534;49.960;8.018;2023-11-21T07:04:43;12.10;99.90
6988;DHT22;3534;49.960;8.018;2023-11-21T07:07:10;12.10;99.90
6988;DHT22;3534;49.960;8.018;2023-11-21T07:09:37;12.10;99.90
6988;DHT22;3534;49.960;8.018;2023-11-21T07:12:04;12.10;99.90
6988;DHT22;3534;49.960;8.018;2023-11-21T07:14:33;12.10;99.90
6988;DHT22;3534;49.960;8.018;2023-11-21T07:17:01;12.10;99.90
6988;DHT22;3534;49.960;8.018;2023-11-21T07:19:27;12.20;99.90
6988;DHT22;3534;49.960;8.018;2023-11-21T07:21:54;12.10;99.90
6988;DHT22;3534;49.960;8.018;2023-11-21T07:24:21;12.20;99.90
6988;DHT22;3534;49.960;8.018;2023-11-21T07:26:49;12.20;99.90
6988;DHT22;3534;49.960;8.018;2023-11-21T07:29:15;12.20;99.90
6988;DHT22;3534;49.960;8.018;2023-11-21T07:31:42;12.10;99.90
6988;DHT22;3534;49.960;8.018;2023-11-21T07:34:10;11.90;99.90
6988;DHT22;3534;49.960;8.018;2023-11-21T07:36:37;11.70;99.90
6988;DHT22;3534;49.960;8.018;2023-11-21T07:39:04;11.70;99.90
6988;DHT22;3534;49.960;8.018;2023-11-21T07:41:32;11.70;99.90
6988;DHT22;3534;49.960;8.018;2023-11-21T07:43:58;11.70;99.90
6988;DHT22;3534;49.960;8.018;2023-11-21T07:46:26;11.70;99.90
6988;DHT22;3534;49.960;8.018;2023-11-21T07:48:52;11.80;99.90
6988;DHT22;3534;49.960;8.018;2023-11-21T07:51:21;11.90;99.90
6988;DHT22;3534;49.960;8.018;2023-11-21T07:53:48;11.80;99.90
6988;DHT22;3534;49.960;8.018;2023-11-21T07:56:15;11.90;99.90
6988;DHT22;3534;49.960;8.018;2023-11-21T07:58:41;11.90;99.90
6988;DHT22;3534;49.960;8.018;2023-11-21T08:01:08;11.90;99.90
6988;DHT22;3534;49.960;8.018;2023-11-21T08:03:35;12.00;99.90
6988;DHT22;3534;49.960;8.018;2023-11-21T08:06:02;12.00;99.90
6988;DHT22;3534;49.960;8.018;2023-11-21T08:08:32;12.10;99.90
6988;DHT22;3534;49.960;8.018;2023-11-21T08:10:59;12.10;99.90
6988;DHT22;3534;49.960;8.018;2023-11-21T08:13:28;12.10;99.90
6988;DHT22;3534;49.960;8.018;2023-11-21T08:15:56;12.10;99.90
6988;DHT22;3534;49.960;8.018;2023-11-21T08:18:27;12.10;99.90
6988;DHT22;3534;49.960;8.018;2023-11-21T08:20:54;12.10;99.90
6988;DHT22;3534;49.960;8.018;2023-11-21T08:23:21;12.10;99.90
6988;DHT22;3534;49.960;8.018;2023-11-21T08:25:52;12.00;99.90
6988;DHT22;3534;49.960;8.018;2023-11-21T08:28:19;12.00;99.90
6988;DHT22;3534;49.960;8.018;2023-11-21T08:30:48;12.10;99.90
6988;DHT22;3534;49.960;8.018;2023-11-21T08:33:15;12.10;99.90
6988;DHT22;3534;49.960;8.018;2023-11-21T08:35:42;12.10;99.90
6988;DHT22;3534;49.960;8.018;2023-11-21T08:38:08;12.10;99.90
6988;DHT22;3534;49.960;8.018;2023-11-21T08:40:36;12.20;99.90
6988;DHT22;3534;49.960;8.018;2023-11-21T08:43:04;12.10;99.90
6988;DHT22;3534;49.960;8.018;2023-11-21T08:45:31;12.10;99.90
6988;DHT22;3534;49.960;8.018;2023-11-21T08:47:59;12.10;99.90
6988;DHT22;3534;49.960;8.018;2023-11-21T08:50:26;11.90;99.90
6988;DHT22;3534;49.960;8.018;2023-11-21T08:52:53;11.90;99.90
6988;DHT22;3534;49.960;8.018;2023-11-21T08:55:21;12.00;99.90
6988;DHT22;3534;49.960;8.018;2023-11-21T08:57:48;11.90;99.90
6988;DHT22;3534;49.960;8.018;2023-11-21T09:00:16;11.90;99.90
6988;DHT22;3534;49.960;8.018;2023-11-21T09:02:44;12.00;99.90
6988;DHT22;3534;49.960;8.018;2023-11-21T09:05:11;12.10;99.90
6988;DHT22;3534;49.960;8.018;2023-11-21T09:07:39;12.10;99.90
6988;DHT22;3534;49.960;8.018;2023-11-21T09:10:08;12.20;99.90
6988;DHT22;3534;49.960;8.018;2023-11-21T09:12:35;12.20;99.90
6988;DHT22;3534;49.960;8.018;2023-11-21T09:15:03;12.30;99.90
6988;DHT22;3534;49.960;8.018;2023-11-21T09:17:32;12.30;99.90
6988;DHT22;3534;49.960;8.018;2023-11-21T09:19:59;12.40;99.90
6988;DHT22;3534;49.960;8.018;2023-11-21T09:22:26;12.40;99.90
6988;DHT22;3534;49.960;8.018;2023-11-21T09:24:55;12.40;99.90
6988;DHT22;3534;49.960;8.018;2023-11-21T09:27:23;12.40;99.90
6988;DHT22;3534;49.960;8.018;2023-11-21T09:29:51;12.30;99.90
6988;DHT22;3534;49.960;8.018;2023-11-21T09:32:18;12.30;99.90
6988;DHT22;3534;49.960;8.018;2023-11-21T09:34:48;12.30;99.90
6988;DHT22;3534;49.960;8.018;2023-11-21T09:37:14;12.40;99.90
6988;DHT22;3534;49.960;8.018;2023-11-21T09:39:41;12.40;99.90
6988;DHT22;3534;49.960;8.018;2023-11-21T09:42:10;12.50;99.90
6988;DHT22;3534;49.960;8.018;2023-11-21T09:44:45;12.50;99.90
6988;DHT22;3534;49.960;8.018;2023-11-21T09:47:15;12.60;99.90
6988;DHT22;3534;49.960;8.018;2023-11-21T09:49:44;12.70;99.90
6988;DHT22;3534;49.960;8.018;2023-11-21T09:52:19;12.70;99.90
6988;DHT22;3534;49.960;8.018;2023-11-21T09:54:49;12.70;99.90
6988;DHT22;3534;49.960;8.018;2023-11-21T09:57:16;12.70;99.90
6988;DHT22;3534;49.960;8.018;2023-11-21T09:59:45;12.80;99.90
6988;DHT22;3534;49.960;8.018;2023-11-21T10:02:14;12.80;99.90
6988;DHT22;3534;49.960;8.018;2023-11-21T10:04:44;12.90;99.90
6988;DHT22;3534;49.960;8.018;2023-11-21T10:07:11;13.00;99.90
6988;DHT22;3534;49.960;8.018;2023-11-21T10:09:42;13.00;99.90
6988;DHT22;3534;49.960;8.018;2023-11-21T10:12:10;12.90;99.90
6988;DHT22;3534;49.960;8.018;2023-11-21T10:14:40;12.70;99.90
6988;DHT22;3534;49.960;8.018;2023-11-21T10:17:10;12.60;99.90
6988;DHT22;3534;49.960;8.018;2023-11-21T10:19:39;12.50;99.90
6988;DHT22;3534;49.960;8.018;2023-11-21T10:22:06;12.60;99.90
6988;DHT22;3534;49.960;8.018;2023-11-21T10:24:34;12.70;99.90
6988;DHT22;3534;49.960;8.018;2023-11-21T10:27:03;12.90;99.90
6988;DHT22;3534;49.960;8.018;2023-11-21T10:29:30;12.90;99.90
6988;DHT22;3534;49.960;8.018;2023-11-21T10:32:01;12.90;99.90
6988;DHT22;3534;49.960;8.018;2023-11-21T10:34:28;13.00;99.90
6988;DHT22;3534;49.960;8.018;2023-11-21T10:36:55;13.00;99.90
6988;DHT22;3534;49.960;8.018;2023-11-21T10:39:25;13.10;99.90
6988;DHT22;3534;49.960;8.018;2023-11-21T10:41:56;13.00;99.90
6988;DHT22;3534;49.960;8.018;2023-11-21T10:44:24;12.80;99.90
6988;DHT22;3534;49.960;8.018;2023-11-21T10:46:53;12.80;99.90
6988;DHT22;3534;49.960;8.018;2023-11-21T10:49:22;12.80;99.90
6988;DHT22;3534;49.960;8.018;2023-11-21T10:51:50;12.70;99.90
6988;DHT22;3534;49.960;8.018;2023-11-21T10:54:19;12.80;99.90
6988;DHT22;3534;49.960;8.018;2023-11-21T10:56:49;12.90;99.90
6988;DHT22;3534;49.960;8.018;2023-11-21T10:59:17;13.00;99.90
6988;DHT22;3534;49.960;8.018;2023-11-21T11:01:47;13.20;99.90
6988;DHT22;3534;49.960;8.018;2023-11-21T11:04:18;13.30;99.90
6988;DHT22;3534;49.960;8.018;2023-11-21T11:06:46;13.40;99.90
6988;DHT22;3534;49.960;8.018;2023-11-21T11:09:17;13.50;99.90
6988;DHT22;3534;49.960;8.018;2023-11-21T11:11:44;13.50;99.90
6988;DHT22;3534;49.960;8.018;2023-11-21T11:14:12;13.70;99.90
6988;DHT22;3534;49.960;8.018;2023-11-21T11:16:40;13.90;99.90
6988;DHT22;3534;49.960;8.018;2023-11-21T11:19:10;14.10;99.90
6988;DHT22;3534;49.960;8.018;2023-11-21T11:21:45;14.20;99.90
6988;DHT22;3534;49.960;8.018;2023-11-21T11:24:35;14.40;99.90
6988;DHT22;3534;49.960;8.018;2023-11-21T11:27:22;14.60;99.90
6988;DHT22;3534;49.960;8.018;2023-11-21T11:29:58;14.70;99.90
6988;DHT22;3534;49.960;8.018;2023-11-21T11:32:43;14.80;99.90
6988;DHT22;3534;49.960;8.018;2023-11-21T11:35:24;14.90;99.90
6988;DHT22;3534;49.960;8.018;2023-11-21T11:37:53;14.90;99.90
6988;DHT22;3534;49.960;8.018;2023-11-21T11:40:20;15.00;99.90
6988;DHT22;3534;49.960;8.018;2023-11-21T11:42:57;15.00;99.90
6988;DHT22;3534;49.960;8.018;2023-11-21T11:45:32;15.20;99.90
6988;DHT22;3534;49.960;8.018;2023-11-21T11:48:00;15.30;99.90
6988;DHT22;3534;49.960;8.018;2023-11-21T11:50:27;15.30;99.90
6988;DHT22;3534;49.960;8.018;2023-11-21T11:52:55;15.40;99.90
6988;DHT22;3534;49.960;8.018;2023-11-21T11:55:24;15.30;99.90
6988;DHT22;3534;49.960;8.018;2023-11-21T11:57:52;15.40;99.90
6988;DHT22;3534;49.960;8.018;2023-11-21T12:00:22;15.50;99.90
6988;DHT22;3534;49.960;8.018;2023-11-21T12:02:51;15.50;99.90
6988;DHT22;3534;49.960;8.018;2023-11-21T12:05:19;15.60;99.90
6988;DHT22;3534;49.960;8.018;2023-11-21T12:07:49;15.70;99.90
6988;DHT22;3534;49.960;8.018;2023-11-21T12:10:19;15.70;99.90
6988;DHT22;3534;49.960;8.018;2023-11-21T12:12:48;15.80;99.90
6988;DHT22;3534;49.960;8.018;2023-11-21T12:15:15;15.80;99.90
6988;DHT22;3534;49.960;8.018;2023-11-21T12:17:43;15.90;99.90
6988;DHT22;3534;49.960;8.018;2023-11-21T12:20:11;15.90;99.90
6988;DHT22;3534;49.960;8.018;2023-11-21T12:22:45;15.80;99.90
6988;DHT22;3534;49.960;8.018;2023-11-21T12:25:15;15.70;99.90
6988;DHT22;3534;49.960;8.018;2023-11-21T12:27:44;15.70;99.90
6988;DHT22;3534;49.960;8.018;2023-11-21T12:30:13;15.50;99.90
6988;DHT22;3534;49.960;8.018;2023-11-21T12:32:41;15.20;99.90
6988;DHT22;3534;49.960;8.018;2023-11-21T12:35:09;14.90;99.90
6988;DHT22;3534;49.960;8.018;2023-11-21T12:37:36;14.70;99.90
6988;DHT22;3534;49.960;8.018;2023-11-21T12:40:04;14.50;99.90
6988;DHT22;3534;49.960;8.018;2023-11-21T12:42:33;14.30;99.90
6988;DHT22;3534;49.960;8.018;2023-11-21T12:45:18;14.20;99.90
6988;DHT22;3534;49.960;8.018;2023-11-21T12:47:46;14.10;99.90
6988;DHT22;3534;49.960;8.018;2023-11-21T12:50:13;14.00;99.90
6988;DHT22;3534;49.960;8.018;2023-11-21T12:52:45;14.10;99.90
6988;DHT22;3534;49.960;8.018;2023-11-21T12:55:15;14.10;99.90
6988;DHT22;3534;49.960;8.018;2023-11-21T12:57:44;14.00;99.90
6988;DHT22;3534;49.960;8.018;2023-11-21T13:00:12;14.00;99.90
6988;DHT22;3534;49.960;8.018;2023-11-21T13:02:52;14.00;99.90
6988;DHT22;3534;49.960;8.018;2023-11-21T13:05:30;14.10;99.90
6988;DHT22;3534;49.960;8.018;2023-11-21T13:07:58;14.10;99.90
6988;DHT22;3534;49.960;8.018;2023-11-21T13:10:28;14.10;99.90
6988;DHT22;3534;49.960;8.018;2023-11-21T13:12:57;14.10;99.90
6988;DHT22;3534;49.960;8.018;2023-11-21T13:15:26;14.00;99.90
6988;DHT22;3534;49.960;8.018;2023-11-21T13:17:53;13.90;99.90
6988;DHT22;3534;49.960;8.018;2023-11-21T13:20:21;13.80;99.90
6988;DHT22;3534;49.960;8.018;2023-11-21T13:22:49;14.00;99.90
6988;DHT22;3534;49.960;8.018;2023-11-21T13:25:17;14.00;99.90
6988;DHT22;3534;49.960;8.018;2023-11-21T13:27:45;14.00;99.90
6988;DHT22;3534;49.960;8.018;2023-11-21T13:30:14;14.20;99.90
6988;DHT22;3534;49.960;8.018;2023-11-21T13:32:43;14.20;99.90
6988;DHT22;3534;49.960;8.018;2023-11-21T13:35:10;14.30;99.90
6988;DHT22;3534;49.960;8.018;2023-11-21T13:37:50;14.30;99.90
6988;DHT22;3534;49.960;8.018;2023-11-21T13:40:22;14.20;99.90
6988;DHT22;3534;49.960;8.018;2023-11-21T13:42:51;14.40;99.90
6988;DHT22;3534;49.960;8.018;2023-11-21T13:45:21;14.40;99.90
6988;DHT22;3534;49.960;8.018;2023-11-21T13:47:49;14.50;99.90
6988;DHT22;3534;49.960;8.018;2023-11-21T13:50:18;14.50;99.90
6988;DHT22;3534;49.960;8.018;2023-11-21T13:52:48;14.40;99.90
6988;DHT22;3534;49.960;8.018;2023-11-21T13:55:16;14.50;99.90
6988;DHT22;3534;49.960;8.018;2023-11-21T13:57:43;14.40;99.90
6988;DHT22;3534;49.960;8.018;2023-11-21T14:00:13;14.10;99.90
6988;DHT22;3534;49.960;8.018;2023-11-21T14:03:03;14.00;99.90
6988;DHT22;3534;49.960;8.018;2023-11-21T14:05:34;13.90;99.90
6988;DHT22;3534;49.960;8.018;2023-11-21T14:08:00;13.80;99.90
6988;DHT22;3534;49.960;8.018;2023-11-21T14:10:30;13.90;99.90
6988;DHT22;3534;49.960;8.018;2023-11-21T14:13:05;14.00;99.90
6988;DHT22;3534;49.960;8.018;2023-11-21T14:15:32;14.10;99.90
6988;DHT22;3534;49.960;8.018;2023-11-21T14:18:05;14.10;99.90
6988;DHT22;3534;49.960;8.018;2023-11-21T14:20:34;13.90;99.90
6988;DHT22;3534;49.960;8.018;2023-11-21T14:23:01;13.90;99.90
6988;DHT22;3534;49.960;8.018;2023-11-21T14:25:28;13.90;99.90
6988;DHT22;3534;49.960;8.018;2023-11-21T14:27:55;13.90;99.90
6988;DHT22;3534;49.960;8.018;2023-11-21T14:30:22;13.90;99.90
6988;DHT22;3534;49.960;8.018;2023-11-21T14:32:50;13.90;99.90
6988;DHT22;3534;49.960;8.018;2023-11-21T14:35:18;13.90;99.90
6988;DHT22;3534;49.960;8.018;2023-11-21T14:37:45;13.90;99.90
6988;DHT22;3534;49.960;8.018;2023-11-21T14:40:12;13.70;99.90
6988;DHT22;3534;49.960;8.018;2023-11-21T14:42:42;13.60;99.90
6988;DHT22;3534;49.960;8.018;2023-11-21T14:45:12;13.60;99.90
6988;DHT22;3534;49.960;8.018;2023-11-21T14:47:42;13.70;99.90
6988;DHT22;3534;49.960;8.018;2023-11-21T14:50:14;13.70;99.90
6988;DHT22;3534;49.960;8.018;2023-11-21T14:53:10;13.60;99.90
6988;DHT22;3534;49.960;8.018;2023-11-21T14:55:39;13.50;99.90
6988;DHT22;3534;49.960;8.018;2023-11-21T14:58:19;13.50;99.90
6988;DHT22;3534;49.960;8.018;2023-11-21T15:00:53;13.40;99.90
6988;DHT22;3534;49.960;8.018;2023-11-21T15:03:24;13.30;99.90
6988;DHT22;3534;49.960;8.018;2023-11-21T15:06:15;13.20;99.90
6988;DHT22;3534;49.960;8.018;2023-11-21T15:08:54;13.20;99.90
6988;DHT22;3534;49.960;8.018;2023-11-21T15:11:38;13.30;99.90
6988;DHT22;3534;49.960;8.018;2023-11-21T15:14:05;13.40;99.90
6988;DHT22;3534;49.960;8.018;2023-11-21T15:16:33;13.40;99.90
6988;DHT22;3534;49.960;8.018;2023-11-21T15:19:04;13.50;99.90
6988;DHT22;3534;49.960;8.018;2023-11-21T15:21:32;13.50;99.90
6988;DHT22;3534;49.960;8.018;2023-11-21T15:24:00;13.50;99.90
6988;DHT22;3534;49.960;8.018;2023-11-21T15:26:27;13.60;99.90
6988;DHT22;3534;49.960;8.018;2023-11-21T15:28:54;13.50;99.90
6988;DHT22;3534;49.960;8.018;2023-11-21T15:31:21;13.40;99.90
6988;DHT22;3534;49.960;8.018;2023-11-21T15:33:50;13.40;99.90
6988;DHT22;3534;49.960;8.018;2023-11-21T15:36:17;13.40;99.90
6988;DHT22;3534;49.960;8.018;2023-11-21T15:38:44;13.30;99.90
6988;DHT22;3534;49.960;8.018;2023-11-21T15:41:13;13.10;99.90
6988;DHT22;3534;49.960;8.018;2023-11-21T15:43:39;13.00;99.90
6988;DHT22;3534;49.960;8.018;2023-11-21T15:46:06;12.90;99.90
6988;DHT22;3534;49.960;8.018;2023-11-21T15:48:34;12.80;99.90
6988;DHT22;3534;49.960;8.018;2023-11-21T15:51:01;12.80;99.90
6988;DHT22;3534;49.960;8.018;2023-11-21T15:53:30;12.70;99.90
6988;DHT22;3534;49.960;8.018;2023-11-21T15:55:57;12.60;99.90
6988;DHT22;3534;49.960;8.018;2023-11-21T15:58:25;12.70;99.90
6988;DHT22;3534;49.960;8.018;2023-11-21T16:00:52;12.60;99.90
6988;DHT22;3534;49.960;8.018;2023-11-21T16:03:19;12.60;99.90
6988;DHT22;3534;49.960;8.018;2023-11-21T16:05:47;12.60;99.90
6988;DHT22;3534;49.960;8.018;2023-11-21T16:08:14;12.50;99.90
6988;DHT22;3534;49.960;8.018;2023-11-21T16:10:42;12.40;99.90